LNR52WF LGSK-LGKR
Flight info
| Callsign | LNR52WF |
|---|---|
| Flight time | 0h 40m |
| Altitude | 26000 |
| Route | EVIKO W58 AGH UV651 YNN UM600 PARAX |
| Aircraft | A320/M-SDE3FGHIRWY/LB1 |
Departure
| Time | 2026-04-28 19:14 |
|---|---|
| Airport | Skiathos Island National Airport (LGSK) |
Arrival
| Time | 2026-04-28 19:54 |
|---|---|
| Airport | Corfu Ioannis Kapodistrias International Airport (LGKR) |
| Time | Latitude | Longitude | Altitude | Speed | Heading |
|---|---|---|---|---|---|
| 2026-04-28 19:14 | 39.27821 | 23.59072 | 6869 ft | 226 kts | 106° |
| 2026-04-28 19:14 | 39.27288 | 23.61000 | 7617 ft | 229 kts | 109° |
| 2026-04-28 19:14 | 39.26574 | 23.62856 | 8333 ft | 235 kts | 131° |
| 2026-04-28 19:14 | 39.25209 | 23.64023 | 9021 ft | 241 kts | 165° |
| 2026-04-28 19:15 | 39.23564 | 23.64068 | 9702 ft | 243 kts | 197° |
| 2026-04-28 19:15 | 39.21951 | 23.63383 | 10431 ft | 245 kts | 201° |
| 2026-04-28 19:15 | 39.20346 | 23.62594 | 11164 ft | 247 kts | 212° |
| 2026-04-28 19:15 | 39.19432 | 23.61738 | 11618 ft | 246 kts | 229° |
| 2026-04-28 19:16 | 39.18309 | 23.59190 | 12344 ft | 255 kts | 261° |
| 2026-04-28 19:16 | 39.18255 | 23.56830 | 12630 ft | 274 kts | 277° |
| 2026-04-28 19:16 | 39.18395 | 23.54311 | 12985 ft | 293 kts | 276° |
| 2026-04-28 19:16 | 39.18532 | 23.51654 | 13651 ft | 299 kts | 276° |
| 2026-04-28 19:17 | 39.18662 | 23.48958 | 14389 ft | 303 kts | 276° |
| 2026-04-28 19:17 | 39.18788 | 23.46227 | 15142 ft | 306 kts | 276° |
| 2026-04-28 19:17 | 39.18913 | 23.43464 | 15876 ft | 309 kts | 276° |
| 2026-04-28 19:17 | 39.19041 | 23.40623 | 16139 ft | 328 kts | 275° |
| 2026-04-28 19:18 | 39.19177 | 23.37602 | 16383 ft | 345 kts | 275° |
| 2026-04-28 19:18 | 39.19314 | 23.34519 | 16923 ft | 351 kts | 275° |
| 2026-04-28 19:18 | 39.19455 | 23.31363 | 17565 ft | 354 kts | 275° |
| 2026-04-28 19:18 | 39.19599 | 23.28131 | 18206 ft | 358 kts | 275° |
| 2026-04-28 19:19 | 39.19741 | 23.24957 | 18831 ft | 360 kts | 275° |
| 2026-04-28 19:19 | 39.19884 | 23.21714 | 19451 ft | 363 kts | 275° |
| 2026-04-28 19:19 | 39.20026 | 23.18454 | 20051 ft | 366 kts | 275° |
| 2026-04-28 19:19 | 39.20168 | 23.15164 | 20632 ft | 369 kts | 275° |
| 2026-04-28 19:20 | 39.20308 | 23.11858 | 21195 ft | 371 kts | 275° |
| 2026-04-28 19:20 | 39.20449 | 23.08516 | 21733 ft | 374 kts | 275° |
| 2026-04-28 19:20 | 39.20590 | 23.05156 | 22263 ft | 377 kts | 275° |
| 2026-04-28 19:20 | 39.20734 | 23.01765 | 22766 ft | 379 kts | 276° |
| 2026-04-28 19:21 | 39.20880 | 22.98366 | 23264 ft | 382 kts | 275° |
| 2026-04-28 19:21 | 39.21026 | 22.94927 | 23751 ft | 385 kts | 276° |
| 2026-04-28 19:21 | 39.21169 | 22.91474 | 24225 ft | 387 kts | 275° |
| 2026-04-28 19:21 | 39.21310 | 22.87998 | 24681 ft | 389 kts | 275° |
| 2026-04-28 19:22 | 39.21449 | 22.84544 | 25111 ft | 392 kts | 275° |
| 2026-04-28 19:22 | 39.21545 | 22.82174 | 25400 ft | 393 kts | 276° |
| 2026-04-28 19:22 | 39.22143 | 22.77574 | 25931 ft | 393 kts | 288° |
| 2026-04-28 19:22 | 39.22986 | 22.74204 | 26083 ft | 393 kts | 290° |
| 2026-04-28 19:23 | 39.23824 | 22.70916 | 26107 ft | 376 kts | 290° |
| 2026-04-28 19:23 | 39.24636 | 22.67736 | 26111 ft | 370 kts | 290° |
| 2026-04-28 19:23 | 39.25436 | 22.64603 | 26108 ft | 368 kts | 290° |
| 2026-04-28 19:23 | 39.26238 | 22.61463 | 26109 ft | 367 kts | 290° |
| 2026-04-28 19:24 | 39.27033 | 22.58333 | 26108 ft | 367 kts | 290° |
| 2026-04-28 19:24 | 39.27825 | 22.55204 | 26109 ft | 367 kts | 290° |
| 2026-04-28 19:24 | 39.28604 | 22.52115 | 26108 ft | 367 kts | 290° |
| 2026-04-28 19:24 | 39.29394 | 22.48985 | 26109 ft | 367 kts | 290° |
| 2026-04-28 19:25 | 39.30185 | 22.45852 | 26108 ft | 367 kts | 290° |
| 2026-04-28 19:25 | 39.30975 | 22.42714 | 26107 ft | 367 kts | 290° |
| 2026-04-28 19:25 | 39.31761 | 22.39582 | 26106 ft | 366 kts | 290° |
| 2026-04-28 19:25 | 39.32545 | 22.36451 | 26105 ft | 366 kts | 290° |
| 2026-04-28 19:26 | 39.33329 | 22.33320 | 26104 ft | 366 kts | 289° |
| 2026-04-28 19:26 | 39.34114 | 22.30183 | 26105 ft | 366 kts | 290° |
| 2026-04-28 19:26 | 39.34898 | 22.27054 | 26109 ft | 366 kts | 289° |
| 2026-04-28 19:26 | 39.35682 | 22.23915 | 26104 ft | 366 kts | 289° |
| 2026-04-28 19:27 | 39.36460 | 22.20788 | 26105 ft | 366 kts | 289° |
| 2026-04-28 19:27 | 39.37235 | 22.17659 | 26106 ft | 365 kts | 289° |
| 2026-04-28 19:27 | 39.38010 | 22.14532 | 26104 ft | 365 kts | 289° |
| 2026-04-28 19:27 | 39.38785 | 22.11405 | 26104 ft | 365 kts | 289° |
| 2026-04-28 19:28 | 39.39558 | 22.08276 | 26104 ft | 365 kts | 289° |
| 2026-04-28 19:28 | 39.40323 | 22.05179 | 26104 ft | 366 kts | 289° |
| 2026-04-28 19:28 | 39.41097 | 22.02047 | 26106 ft | 365 kts | 289° |
| 2026-04-28 19:28 | 39.41876 | 21.98913 | 26105 ft | 365 kts | 289° |
| 2026-04-28 19:29 | 39.42653 | 21.95784 | 26106 ft | 365 kts | 289° |
| 2026-04-28 19:29 | 39.43168 | 21.93703 | 26108 ft | 365 kts | 289° |
| 2026-04-28 19:29 | 39.44200 | 21.89517 | 26106 ft | 365 kts | 289° |
| 2026-04-28 19:29 | 39.44970 | 21.86386 | 26109 ft | 365 kts | 289° |
| 2026-04-28 19:30 | 39.45737 | 21.83260 | 26106 ft | 365 kts | 289° |
| 2026-04-28 19:30 | 39.46503 | 21.80121 | 26109 ft | 365 kts | 289° |
| 2026-04-28 19:30 | 39.47265 | 21.76995 | 26112 ft | 365 kts | 289° |
| 2026-04-28 19:30 | 39.48029 | 21.73861 | 26109 ft | 365 kts | 289° |
| 2026-04-28 19:31 | 39.48796 | 21.70729 | 26109 ft | 365 kts | 289° |
| 2026-04-28 19:31 | 39.49567 | 21.67589 | 26109 ft | 365 kts | 289° |
| 2026-04-28 19:31 | 39.50334 | 21.64453 | 26115 ft | 365 kts | 289° |
| 2026-04-28 19:31 | 39.51097 | 21.61315 | 26110 ft | 365 kts | 289° |
| 2026-04-28 19:32 | 39.51858 | 21.58174 | 26114 ft | 365 kts | 289° |
| 2026-04-28 19:32 | 39.52619 | 21.55034 | 26109 ft | 365 kts | 289° |
| 2026-04-28 19:32 | 39.53371 | 21.51926 | 26110 ft | 366 kts | 289° |
| 2026-04-28 19:32 | 39.54129 | 21.48789 | 26111 ft | 366 kts | 289° |
| 2026-04-28 19:33 | 39.54886 | 21.45637 | 26111 ft | 365 kts | 289° |
| 2026-04-28 19:33 | 39.55642 | 21.42494 | 26110 ft | 366 kts | 289° |
| 2026-04-28 19:33 | 39.56400 | 21.39349 | 26111 ft | 366 kts | 289° |
| 2026-04-28 19:33 | 39.57160 | 21.36198 | 26116 ft | 365 kts | 289° |
| 2026-04-28 19:34 | 39.57921 | 21.33045 | 26118 ft | 366 kts | 289° |
| 2026-04-28 19:34 | 39.58681 | 21.29893 | 26115 ft | 366 kts | 289° |
| 2026-04-28 19:34 | 39.59439 | 21.26735 | 26117 ft | 366 kts | 289° |
| 2026-04-28 19:34 | 39.60190 | 21.23582 | 26117 ft | 366 kts | 288° |
| 2026-04-28 19:35 | 39.60928 | 21.20467 | 26118 ft | 366 kts | 288° |
| 2026-04-28 19:35 | 39.61678 | 21.17314 | 26118 ft | 366 kts | 288° |
| 2026-04-28 19:35 | 39.62428 | 21.14162 | 26118 ft | 366 kts | 288° |
| 2026-04-28 19:35 | 39.63180 | 21.11010 | 26120 ft | 366 kts | 288° |
| 2026-04-28 19:36 | 39.63933 | 21.07855 | 26114 ft | 366 kts | 288° |
| 2026-04-28 19:36 | 39.64684 | 21.04705 | 26115 ft | 366 kts | 288° |
| 2026-04-28 19:36 | 39.65435 | 21.01538 | 26120 ft | 366 kts | 288° |
| 2026-04-28 19:36 | 39.66181 | 20.98378 | 26114 ft | 366 kts | 288° |
| 2026-04-28 19:37 | 39.66928 | 20.95210 | 26114 ft | 366 kts | 288° |
| 2026-04-28 19:37 | 39.67423 | 20.93115 | 26113 ft | 366 kts | 288° |
| 2026-04-28 19:37 | 39.68409 | 20.88927 | 26114 ft | 366 kts | 288° |
| 2026-04-28 19:37 | 39.69050 | 20.85730 | 26123 ft | 367 kts | 280° |
| 2026-04-28 19:38 | 39.69195 | 20.82424 | 26115 ft | 369 kts | 269° |
| 2026-04-28 19:38 | 39.68806 | 20.79121 | 26115 ft | 372 kts | 257° |
| 2026-04-28 19:38 | 39.67907 | 20.75947 | 26117 ft | 375 kts | 249° |
| 2026-04-28 19:38 | 39.66858 | 20.72856 | 26116 ft | 375 kts | 249° |
| 2026-04-28 19:39 | 39.65807 | 20.69752 | 26111 ft | 375 kts | 249° |
| 2026-04-28 19:39 | 39.64757 | 20.66651 | 26111 ft | 375 kts | 249° |
| 2026-04-28 19:39 | 39.63707 | 20.63549 | 26112 ft | 375 kts | 249° |
| 2026-04-28 19:39 | 39.62652 | 20.60440 | 26118 ft | 376 kts | 249° |
| 2026-04-28 19:40 | 39.61598 | 20.57339 | 26116 ft | 376 kts | 249° |
| 2026-04-28 19:40 | 39.60542 | 20.54234 | 26114 ft | 376 kts | 249° |
| 2026-04-28 19:40 | 39.59484 | 20.51135 | 26113 ft | 376 kts | 249° |
| 2026-04-28 19:40 | 39.58423 | 20.48036 | 26109 ft | 376 kts | 249° |
| 2026-04-28 19:41 | 39.57370 | 20.44971 | 26111 ft | 376 kts | 249° |
| 2026-04-28 19:41 | 39.56303 | 20.41872 | 26106 ft | 376 kts | 249° |
| 2026-04-28 19:41 | 39.55169 | 20.38815 | 26104 ft | 378 kts | 239° |
| 2026-04-28 19:41 | 39.53331 | 20.36296 | 26114 ft | 397 kts | 217° |
| 2026-04-28 19:42 | 39.50805 | 20.34821 | 25797 ft | 401 kts | 194° |
| 2026-04-28 19:42 | 39.48025 | 20.34676 | 25234 ft | 400 kts | 176° |
| 2026-04-28 19:42 | 39.45269 | 20.34999 | 24112 ft | 400 kts | 178° |
| 2026-04-28 19:42 | 39.43425 | 20.35081 | 23362 ft | 400 kts | 182° |
| 2026-04-28 19:43 | 39.39760 | 20.34633 | 22074 ft | 392 kts | 194° |
| 2026-04-28 19:43 | 39.37178 | 20.33716 | 21168 ft | 385 kts | 202° |
| 2026-04-28 19:43 | 39.34731 | 20.32388 | 20284 ft | 378 kts | 209° |
| 2026-04-28 19:43 | 39.32465 | 20.30700 | 19222 ft | 377 kts | 216° |
| 2026-04-28 19:44 | 39.30385 | 20.28656 | 18153 ft | 375 kts | 223° |
| 2026-04-28 19:44 | 39.28504 | 20.26310 | 16891 ft | 377 kts | 230° |
| 2026-04-28 19:44 | 39.26838 | 20.23677 | 15525 ft | 380 kts | 236° |
| 2026-04-28 19:44 | 39.25395 | 20.20789 | 14019 ft | 385 kts | 242° |
| 2026-04-28 19:45 | 39.24232 | 20.17662 | 12525 ft | 388 kts | 249° |
| 2026-04-28 19:45 | 39.23394 | 20.14349 | 11092 ft | 386 kts | 256° |
| 2026-04-28 19:45 | 39.22897 | 20.10955 | 9807 ft | 382 kts | 264° |
| 2026-04-28 19:45 | 39.22740 | 20.07678 | 9466 ft | 352 kts | 270° |
| 2026-04-28 19:46 | 39.22831 | 20.04655 | 9294 ft | 322 kts | 275° |
| 2026-04-28 19:46 | 39.23129 | 20.01916 | 9148 ft | 297 kts | 281° |
| 2026-04-28 19:46 | 39.23589 | 19.99415 | 8707 ft | 285 kts | 286° |
| 2026-04-28 19:46 | 39.24302 | 19.97054 | 8082 ft | 281 kts | 301° |
| 2026-04-28 19:47 | 39.25565 | 19.95164 | 7441 ft | 279 kts | 322° |
| 2026-04-28 19:47 | 39.27281 | 19.94062 | 6765 ft | 277 kts | 346° |
| 2026-04-28 19:47 | 39.29183 | 19.93927 | 6102 ft | 274 kts | 9° |
| 2026-04-28 19:47 | 39.31043 | 19.94457 | 5415 ft | 273 kts | 13° |
| 2026-04-28 19:48 | 39.32888 | 19.95015 | 5113 ft | 268 kts | 13° |
| 2026-04-28 19:48 | 39.34095 | 19.95380 | 4838 ft | 267 kts | 13° |
| 2026-04-28 19:48 | 39.35868 | 19.95916 | 4434 ft | 254 kts | 13° |
| 2026-04-28 19:48 | 39.37505 | 19.96405 | 4036 ft | 233 kts | 13° |
| 2026-04-28 19:49 | 39.39030 | 19.96859 | 3636 ft | 218 kts | 13° |
| 2026-04-28 19:49 | 39.40465 | 19.97288 | 3371 ft | 200 kts | 13° |
| 2026-04-28 19:49 | 39.41791 | 19.97648 | 3365 ft | 195 kts | 6° |
| 2026-04-28 19:49 | 39.43129 | 19.97509 | 3125 ft | 192 kts | 344° |
| 2026-04-28 19:50 | 39.45688 | 19.96535 | 2829 ft | 191 kts | 343° |
| 2026-04-28 19:50 | 39.46917 | 19.96077 | 2574 ft | 175 kts | 344° |
| 2026-04-28 19:50 | 39.48022 | 19.95664 | 2336 ft | 158 kts | 344° |
| 2026-04-28 19:51 | 39.49041 | 19.95283 | 2119 ft | 148 kts | 344° |
| 2026-04-28 19:51 | 39.50012 | 19.94913 | 1918 ft | 144 kts | 344° |
| 2026-04-28 19:51 | 39.50958 | 19.94555 | 1725 ft | 142 kts | 344° |
| 2026-04-28 19:51 | 39.51905 | 19.94209 | 1541 ft | 141 kts | 345° |
| 2026-04-28 19:52 | 39.52846 | 19.93860 | 1333 ft | 140 kts | 344° |
| 2026-04-28 19:52 | 39.53776 | 19.93492 | 1140 ft | 139 kts | 342° |
| 2026-04-28 19:52 | 39.54675 | 19.93043 | 978 ft | 138 kts | 330° |
| 2026-04-28 19:52 | 39.55529 | 19.92470 | 793 ft | 139 kts | 341° |
| 2026-04-28 19:53 | 39.56463 | 19.92192 | 591 ft | 137 kts | 347° |
| 2026-04-28 19:53 | 39.57398 | 19.91933 | 477 ft | 137 kts | 349° |
| 2026-04-28 19:53 | 39.58328 | 19.91705 | 262 ft | 137 kts | 349° |
| 2026-04-28 19:53 | 39.59270 | 19.91454 | 58 ft | 136 kts | 348° |
| 2026-04-28 19:54 | 39.60106 | 19.91236 | 21 ft | 93 kts | 348° |
| 2026-04-28 19:54 | 39.60454 | 19.91147 | 19 ft | 21 kts | 350° |
| 2026-04-28 19:54 | 39.60559 | 19.91182 | 18 ft | 10 kts | 30° |
| 2026-04-28 19:54 | 39.60591 | 19.91209 | 18 ft | 5 kts | 40° |
| 2026-04-28 19:55 | 39.60620 | 19.91235 | 19 ft | 4 kts | 6° |
| 2026-04-28 19:55 | 39.60648 | 19.91229 | 20 ft | 4 kts | 352° |
| 2026-04-28 19:55 | 39.60671 | 19.91225 | 18 ft | 3 kts | 352° |
| 2026-04-28 19:55 | 39.60692 | 19.91220 | 18 ft | 3 kts | 348° |
| 2026-04-28 19:56 | 39.60733 | 19.91210 | 18 ft | 7 kts | 356° |
| 2026-04-28 19:56 | 39.60750 | 19.91252 | 18 ft | 5 kts | 81° |
| 2026-04-28 19:56 | 39.60755 | 19.91294 | 20 ft | 4 kts | 79° |
| 2026-04-28 19:56 | 39.60760 | 19.91325 | 20 ft | 3 kts | 79° |
| 2026-04-28 19:57 | 39.60762 | 19.91338 | 18 ft | 0 kts | 79° |